Time;durP1;ratioP1;P1;durP2;ratioP2;P2;SDS_P1;SDS_P2;PMS_P1;PMS_P2;Temp;Humidity;BMP_temperature;BMP_pressure;BME280_temperature;BME280_humidity;BME280_pressure;Samples;Min_cycle;Max_cycle;Signal;HPM_P1;HPM_P2
2023/06/12 00:02:17;;;;;;;10.47;2.80;;;;;;;20.63;72.59;99708.22;5037628;28;20116;-69
2023/06/12 00:04:44;;;;;;;11.07;3.13;;;;;;;20.65;72.29;99711.66;5037462;28;20116;-69
2023/06/12 00:07:10;;;;;;;10.00;3.15;;;;;;;20.64;72.43;99703.72;5019665;28;20067;-69
2023/06/12 00:09:35;;;;;;;10.40;3.05;;;;;;;20.62;72.85;99710.97;5019629;28;20038;-69
2023/06/12 00:12:01;;;;;;;14.83;2.93;;;;;;;20.57;72.97;99707.69;5037417;28;20037;-69
2023/06/12 00:14:26;;;;;;;7.73;3.10;;;;;;;20.53;72.48;99704.31;5037334;28;20401;-68
2023/06/12 00:16:52;;;;;;;10.70;3.33;;;;;;;20.56;72.44;99711.31;5037187;28;20519;-69
2023/06/12 00:19:18;;;;;;;12.13;3.25;;;;;;;20.60;72.35;99715.53;5037329;28;20055;-69
2023/06/12 00:21:44;;;;;;;10.93;3.10;;;;;;;20.64;72.74;99714.41;5037348;28;20033;-69
2023/06/12 00:24:09;;;;;;;12.90;3.42;;;;;;;20.65;72.46;99714.34;5037107;28;20499;-69
2023/06/12 00:26:35;;;;;;;10.87;3.17;;;;;;;20.65;72.55;99721.50;5036977;28;20508;-69
2023/06/12 00:29:01;;;;;;;10.45;3.20;;;;;;;20.64;72.63;99720.66;5036777;28;20199;-68
2023/06/12 00:31:26;;;;;;;10.93;3.40;;;;;;;20.61;72.75;99720.78;5036926;28;20673;-69
2023/06/12 00:33:52;;;;;;;9.80;3.50;;;;;;;20.56;72.64;99722.84;5037284;28;20037;-68
2023/06/12 00:36:17;;;;;;;11.80;3.00;;;;;;;20.51;72.95;99716.91;5036979;28;20043;-69
2023/06/12 00:38:43;;;;;;;11.87;3.70;;;;;;;20.49;73.15;99724.16;5037084;28;20029;-69
2023/06/12 00:41:08;;;;;;;9.13;3.10;;;;;;;20.51;73.16;99725.81;5036577;28;20036;-69
2023/06/12 00:43:34;;;;;;;11.55;3.45;;;;;;;20.48;73.06;99725.09;5037165;28;20041;-68
2023/06/12 00:46:00;;;;;;;14.43;4.40;;;;;;;20.42;73.64;99720.09;5036674;28;20029;-69
2023/06/12 00:48:25;;;;;;;12.20;3.70;;;;;;;20.37;73.17;99718.50;5037007;28;20108;-68
2023/06/12 00:50:52;;;;;;;11.20;3.57;;;;;;;20.35;73.37;99723.06;5036759;28;20041;-68
2023/06/12 00:53:18;;;;;;;13.00;4.10;;;;;;;20.29;73.82;99715.38;5036795;28;20033;-68
2023/06/12 00:55:44;;;;;;;13.15;4.00;;;;;;;20.23;73.87;99721.91;5035305;28;20030;-68
2023/06/12 00:58:10;;;;;;;11.90;3.53;;;;;;;20.21;74.07;99717.63;5036989;28;20040;-69
2023/06/12 01:00:44;;;;;;;12.77;3.92;;;;;;;20.23;74.06;99721.91;5036664;28;21200;-68
2023/06/12 01:03:13;;;;;;;10.20;3.03;;;;;;;20.25;73.78;99726.31;5036990;28;20034;-68
2023/06/12 01:05:45;;;;;;;10.80;3.10;;;;;;;20.25;73.78;99719.16;5036520;28;20041;-68
2023/06/12 01:08:47;;;;;;;8.43;2.60;;;;;;;20.26;73.86;99720.91;5036623;28;20397;-69
2023/06/12 01:11:13;;;;;;;10.02;2.83;;;;;;;20.28;73.29;99724.34;5025225;28;20529;-69
2023/06/12 01:13:39;;;;;;;10.68;2.75;;;;;;;20.29;73.65;99715.38;5036575;28;20425;-68
2023/06/12 01:16:04;;;;;;;9.80;2.73;;;;;;;20.31;73.61;99723.34;5036535;28;20163;-69
2023/06/12 01:18:32;;;;;;;9.15;3.30;;;;;;;20.33;73.65;99722.28;5036388;28;20043;-68
2023/06/12 01:20:58;;;;;;;11.68;2.78;;;;;;;20.28;73.76;99720.84;5036467;28;20029;-68
2023/06/12 01:23:39;;;;;;;7.57;2.77;;;;;;;20.23;73.76;99721.91;5036381;28;20029;-68
2023/06/12 01:26:27;;;;;;;9.77;3.08;;;;;;;20.25;73.51;99719.16;5036293;28;20026;-68
2023/06/12 01:29:11;;;;;;;12.88;2.80;;;;;;;20.23;73.85;99716.56;5036078;28;20061;-68
2023/06/12 01:32:01;;;;;;;9.73;2.42;;;;;;;20.17;73.96;99726.75;5036154;28;20116;-69
2023/06/12 01:34:38;;;;;;;9.88;2.78;;;;;;;20.15;73.79;99718.78;5036327;28;20025;-69
2023/06/12 01:37:32;;;;;;;9.43;2.70;;;;;;;20.12;73.88;99716.28;5023939;28;20018;-69
2023/06/12 01:40:07;;;;;;;6.10;2.28;;;;;;;20.15;73.58;99720.63;5033693;28;20457;-69
2023/06/12 01:42:33;;;;;;;10.32;2.30;;;;;;;20.19;73.84;99722.19;5036194;28;20100;-68
2023/06/12 01:44:58;;;;;;;10.60;2.30;;;;;;;20.23;73.35;99713.03;5018161;28;20116;-68
2023/06/12 01:47:24;;;;;;;10.13;2.57;;;;;;;20.26;73.46;99710.19;5036048;28;20044;-69
2023/06/12 01:49:49;;;;;;;7.95;2.40;;;;;;;20.28;73.44;99702.97;5036058;28;20092;-69
2023/06/12 01:52:15;;;;;;;8.23;2.50;;;;;;;20.29;73.37;99696.66;5035910;28;20028;-68
2023/06/12 01:54:40;;;;;;;13.83;2.43;;;;;;;20.30;73.33;99697.53;5036165;28;20100;-69
2023/06/12 01:57:06;;;;;;;8.50;2.20;;;;;;;20.28;73.13;99692.25;5035941;28;20040;-69
2023/06/12 01:59:34;;;;;;;10.02;2.67;;;;;;;20.26;73.50;99688.81;5036136;28;20615;-68
2023/06/12 02:02:00;;;;;;;7.53;2.08;;;;;;;20.26;73.40;99686.16;5036383;28;20033;-69
2023/06/12 02:04:28;;;;;;;12.38;2.75;;;;;;;20.27;73.13;99685.19;5036240;28;20029;-69
2023/06/12 02:06:53;;;;;;;9.55;2.28;;;;;;;20.27;73.52;99682.53;5038830;28;20056;-68
2023/06/12 02:09:19;;;;;;;10.10;2.20;;;;;;;20.29;73.44;99685.97;5039750;28;20076;-69
2023/06/12 02:11:44;;;;;;;11.10;2.50;;;;;;;20.31;73.45;99681.41;5039653;28;20397;-69
2023/06/12 02:14:10;;;;;;;10.20;2.60;;;;;;;20.29;73.49;99680.63;5039789;28;20029;-69
2023/06/12 02:16:35;;;;;;;8.63;2.20;;;;;;;20.30;73.40;99678.81;5039547;28;20022;-69
2023/06/12 02:19:01;;;;;;;16.15;2.78;;;;;;;20.29;73.37;99677.94;5039798;28;20446;-69
2023/06/12 02:21:26;;;;;;;12.20;2.30;;;;;;;20.30;73.25;99674.34;5021926;28;20033;-69
2023/06/12 02:23:53;;;;;;;11.17;2.60;;;;;;;20.27;73.45;99670.97;5039368;28;20021;-68
2023/06/12 02:26:18;;;;;;;12.48;2.70;;;;;;;20.19;73.55;99671.38;5039424;28;20025;-69
2023/06/12 02:28:47;;;;;;;9.30;2.53;;;;;;;20.08;73.74;99661.28;5039315;28;20040;-69
2023/06/12 02:31:12;;;;;;;11.35;2.60;;;;;;;19.97;74.28;99661.84;5032369;28;20060;-69
2023/06/12 02:33:38;;;;;;;9.20;2.73;;;;;;;19.88;74.29;99663.16;5039376;28;20033;-69
2023/06/12 02:36:05;;;;;;;8.63;2.60;;;;;;;19.84;74.18;99656.25;5039426;28;20140;-69
2023/06/12 02:38:31;;;;;;;8.95;2.35;;;;;;;19.84;74.53;99655.38;5039436;28;20095;-69
2023/06/12 02:40:57;;;;;;;9.93;2.53;;;;;;;19.87;74.34;99660.53;5039016;28;20064;-69
2023/06/12 02:43:22;;;;;;;9.88;2.20;;;;;;;19.88;73.75;99646.25;5039431;28;20029;-68
2023/06/12 02:45:48;;;;;;;9.63;2.00;;;;;;;19.88;74.06;99646.25;5039008;28;20365;-69
2023/06/12 02:48:13;;;;;;;11.15;2.30;;;;;;;19.86;73.79;99642.78;5038141;28;20056;-69
2023/06/12 02:50:38;;;;;;;12.23;2.37;;;;;;;19.84;73.72;99639.34;5039066;28;20076;-69
2023/06/12 02:53:04;;;;;;;9.87;2.30;;;;;;;19.83;73.76;99635.81;5038929;28;20037;-69
2023/06/12 02:55:31;;;;;;;8.70;2.20;;;;;;;19.84;73.88;99634.88;5039068;28;20033;-68
2023/06/12 02:57:57;;;;;;;7.65;2.40;;;;;;;19.82;73.94;99634.09;5020933;28;20083;-69
2023/06/12 03:00:22;;;;;;;6.27;2.30;;;;;;;19.82;73.79;99630.53;5038993;28;20037;-69
2023/06/12 03:02:48;;;;;;;6.40;2.00;;;;;;;19.80;74.01;99631.50;5038728;28;20405;-68
2023/06/12 03:05:14;;;;;;;7.40;2.40;;;;;;;19.80;73.61;99633.31;5038837;28;20033;-68
2023/06/12 03:07:42;;;;;;;6.88;2.08;;;;;;;19.77;73.63;99639.66;5038939;28;20028;-69
2023/06/12 03:10:08;;;;;;;7.10;2.00;;;;;;;19.76;73.80;99643.28;5038693;28;20470;-68
2023/06/12 03:12:34;;;;;;;7.38;1.95;;;;;;;19.72;73.71;99647.06;5038437;28;20402;-69
2023/06/12 03:15:00;;;;;;;7.28;2.45;;;;;;;19.70;73.85;99651.63;5038570;28;20037;-69
2023/06/12 03:17:25;;;;;;;8.85;2.10;;;;;;;19.67;73.64;99649.13;5037999;28;20162;-69
2023/06/12 03:19:51;;;;;;;8.70;2.40;;;;;;;19.64;73.75;99649.25;5038770;28;20030;-68
2023/06/12 03:22:16;;;;;;;11.40;2.43;;;;;;;19.60;74.16;99647.69;5038505;28;20482;-69
2023/06/12 03:24:43;;;;;;;10.77;2.20;;;;;;;19.56;74.11;99644.34;5038466;28;20033;-68
2023/06/12 03:27:10;;;;;;;8.20;2.50;;;;;;;19.49;74.22;99651.78;5038073;28;20466;-68
2023/06/12 03:29:35;;;;;;;9.57;2.20;;;;;;;19.43;74.00;99651.22;5038089;28;20437;-68
2023/06/12 03:32:01;;;;;;;7.20;2.30;;;;;;;19.39;74.40;99653.19;5038120;28;20083;-68
2023/06/12 03:34:26;;;;;;;6.87;2.40;;;;;;;19.37;74.36;99657.75;5038280;28;20029;-69
2023/06/12 03:36:52;;;;;;;7.07;2.38;;;;;;;19.34;74.43;99652.56;5038146;28;20032;-68
2023/06/12 03:39:18;;;;;;;8.63;2.70;;;;;;;19.34;74.30;99653.44;5038325;28;20065;-69
2023/06/12 03:41:56;;;;;;;8.18;2.03;;;;;;;19.37;73.87;99663.06;5037749;28;20018;-68
2023/06/12 03:44:21;;;;;;;10.50;2.03;;;;;;;19.41;74.30;99662.00;5037533;28;20120;-68
2023/06/12 03:46:47;;;;;;;7.32;2.20;;;;;;;19.38;74.37;99659.47;5013708;28;20061;-69
2023/06/12 03:49:12;;;;;;;13.40;2.10;;;;;;;19.37;74.12;99665.75;5020028;28;20036;-68
2023/06/12 03:51:38;;;;;;;6.13;2.10;;;;;;;19.38;74.13;99664.81;5038040;28;20069;-68
2023/06/12 03:54:03;;;;;;;6.77;1.80;;;;;;;19.41;74.10;99670.00;5037914;28;20074;-68
2023/06/12 03:56:29;;;;;;;7.93;2.13;;;;;;;19.41;73.86;99672.69;5037779;28;20024;-68
2023/06/12 03:58:54;;;;;;;9.80;2.23;;;;;;;19.34;74.07;99679.25;5037711;28;20068;-69
2023/06/12 04:01:19;;;;;;;5.73;2.10;;;;;;;19.34;74.54;99681.91;5019985;28;20264;-68
2023/06/12 04:03:45;;;;;;;6.33;2.13;;;;;;;19.32;74.32;99687.34;5037721;28;20148;-68
2023/06/12 04:06:11;;;;;;;9.18;2.30;;;;;;;19.31;74.34;99685.63;5037934;28;20065;-68
2023/06/12 04:08:37;;;;;;;6.73;2.33;;;;;;;19.22;74.33;99681.59;5037739;28;20068;-68
2023/06/12 04:11:04;;;;;;;9.63;2.50;;;;;;;19.17;74.87;99688.97;5037362;28;20025;-69
2023/06/12 04:13:29;;;;;;;9.10;2.20;;;;;;;19.17;74.63;99693.44;5019945;28;20036;-68
2023/06/12 04:15:57;;;;;;;7.60;2.30;;;;;;;19.20;74.85;99686.16;5037658;28;20537;-69
2023/06/12 04:18:23;;;;;;;9.27;2.67;;;;;;;19.21;74.77;99689.69;5019691;28;20018;-68
2023/06/12 04:20:49;;;;;;;6.35;2.17;;;;;;;19.21;74.81;99698.56;5037630;28;20108;-68
2023/06/12 04:23:16;;;;;;;7.53;2.43;;;;;;;19.20;74.81;99694.16;5019590;28;20025;-69
2023/06/12 04:25:42;;;;;;;12.82;2.90;;;;;;;19.18;74.91;99692.50;5037334;28;20497;-69
2023/06/12 04:28:13;;;;;;;8.18;2.40;;;;;;;19.18;75.13;99698.72;5037414;28;20035;-69
2023/06/12 04:30:39;;;;;;;13.70;3.25;;;;;;;19.15;75.25;99695.31;5018367;28;20033;-68
2023/06/12 04:33:04;;;;;;;9.17;2.63;;;;;;;19.13;75.21;99703.41;5037228;28;20134;-69
2023/06/12 04:35:33;;;;;;;7.90;2.83;;;;;;;19.15;75.21;99701.50;5037392;28;20172;-69
2023/06/12 04:37:59;;;;;;;7.57;2.90;;;;;;;19.18;75.22;99696.06;5037351;28;20267;-68
2023/06/12 04:40:24;;;;;;;9.23;3.30;;;;;;;19.20;75.17;99694.16;5037041;28;20070;-69
2023/06/12 04:42:56;;;;;;;9.30;3.07;;;;;;;19.22;75.37;99686.94;5036793;28;20748;-69
2023/06/12 04:45:22;;;;;;;16.90;3.58;;;;;;;19.26;75.11;99692.13;5030352;28;20026;-69
2023/06/12 04:47:48;;;;;;;8.45;2.97;;;;;;;19.31;75.32;99690.97;5036893;28;20067;-68
2023/06/12 04:50:13;;;;;;;7.40;2.97;;;;;;;19.38;74.98;99686.16;5036932;28;20037;-69
2023/06/12 04:52:39;;;;;;;8.75;2.70;;;;;;;19.42;75.04;99685.09;5036983;28;20029;-69
2023/06/12 04:55:08;;;;;;;9.97;2.67;;;;;;;19.48;74.92;99683.91;5036914;28;20056;-68
2023/06/12 04:57:36;;;;;;;8.63;2.50;;;;;;;19.53;74.65;99689.00;5036810;28;20017;-68
2023/06/12 05:00:05;;;;;;;7.20;2.67;;;;;;;19.57;74.81;99690.59;5036924;28;20425;-69
2023/06/12 05:02:33;;;;;;;11.45;3.03;;;;;;;19.58;74.57;99692.31;5036759;28;20018;-69
2023/06/12 05:04:58;;;;;;;10.68;3.42;;;;;;;19.54;75.18;99691.63;5036860;28;20033;-68
2023/06/12 05:07:24;;;;;;;10.20;3.50;;;;;;;19.46;75.41;99694.66;5036713;28;20087;-69
2023/06/12 05:09:50;;;;;;;9.07;3.20;;;;;;;19.41;75.41;99702.06;5036878;28;20388;-69
2023/06/12 05:12:15;;;;;;;8.27;3.30;;;;;;;19.38;75.76;99699.50;5036297;28;20025;-69
2023/06/12 05:14:42;;;;;;;9.30;3.30;;;;;;;19.37;75.62;99697.78;5036695;28;20500;-69
2023/06/12 05:17:08;;;;;;;9.60;3.60;;;;;;;19.38;75.45;99696.84;5036326;28;20474;-69
2023/06/12 05:19:35;;;;;;;10.10;3.67;;;;;;;19.40;75.65;99700.28;5018637;28;20087;-68
2023/06/12 05:22:01;;;;;;;9.50;3.47;;;;;;;19.42;75.80;99706.44;5036532;28;20053;-68
2023/06/12 05:24:26;;;;;;;8.10;3.10;;;;;;;19.46;75.50;99701.81;5036346;28;20067;-69
2023/06/12 05:26:51;;;;;;;9.50;3.33;;;;;;;19.51;75.20;99708.66;5036079;28;20053;-69
2023/06/12 05:29:17;;;;;;;9.97;3.20;;;;;;;19.56;75.18;99708.44;5014957;28;20037;-68
2023/06/12 05:31:42;;;;;;;10.03;3.50;;;;;;;19.58;75.46;99709.22;5034486;28;20076;-69
2023/06/12 05:34:08;;;;;;;10.27;3.80;;;;;;;19.56;75.15;99715.56;5036124;28;20644;-69
2023/06/12 05:36:33;;;;;;;10.03;3.90;;;;;;;19.53;75.59;99715.72;5030153;28;20053;-69
2023/06/12 05:38:58;;;;;;;8.40;3.90;;;;;;;19.52;75.51;99725.53;5029604;28;20026;-69
2023/06/12 05:41:25;;;;;;;9.93;3.90;;;;;;;19.53;75.45;99721.06;5014989;28;20501;-69
2023/06/12 05:43:50;;;;;;;12.90;4.10;;;;;;;19.52;75.72;99720.19;5032556;28;20271;-69
2023/06/12 05:46:16;;;;;;;9.68;3.95;;;;;;;19.55;75.67;99727.19;5040209;28;20056;-69
2023/06/12 05:48:41;;;;;;;11.23;4.03;;;;;;;19.59;75.52;99726.97;5040118;28;20200;-69
2023/06/12 05:51:07;;;;;;;11.20;4.80;;;;;;;19.59;75.82;99726.09;5022312;28;20512;-69
2023/06/12 05:53:35;;;;;;;12.48;4.72;;;;;;;19.53;76.12;99731.75;5040164;28;20033;-69
2023/06/12 05:56:01;;;;;;;10.67;4.50;;;;;;;19.52;75.95;99730.84;5036144;28;20037;-69
2023/06/12 05:58:26;;;;;;;11.00;4.75;;;;;;;19.51;75.52;99730.00;5039809;28;20658;-69
2023/06/12 06:00:53;;;;;;;13.03;5.63;;;;;;;19.53;76.11;99729.91;5022220;28;20021;-69
2023/06/12 06:03:19;;;;;;;9.65;5.40;;;;;;;19.57;75.87;99733.31;5021422;28;20034;-69
2023/06/12 06:05:46;;;;;;;11.90;5.30;;;;;;;19.57;76.18;99727.97;5014471;28;20025;-69
2023/06/12 06:08:12;;;;;;;14.35;5.60;;;;;;;19.55;75.96;99728.06;5040019;28;20055;-69
2023/06/12 06:10:38;;;;;;;10.93;5.78;;;;;;;19.53;75.85;99731.75;5039735;28;20108;-69
2023/06/12 06:13:03;;;;;;;11.90;5.68;;;;;;;19.56;76.25;99727.13;5038000;28;20036;-70
2023/06/12 06:15:29;;;;;;;11.53;4.87;;;;;;;19.60;76.24;99733.16;5038181;28;20029;-69
2023/06/12 06:17:54;;;;;;;12.23;5.23;;;;;;;19.65;75.96;99728.44;5039799;28;20497;-69
2023/06/12 06:20:20;;;;;;;10.32;5.88;;;;;;;19.68;75.90;99728.31;5039836;28;20021;-69
2023/06/12 06:22:46;;;;;;;11.43;5.50;;;;;;;19.69;75.72;99735.38;5039608;28;20025;-69
2023/06/12 06:25:13;;;;;;;12.65;6.50;;;;;;;19.72;75.87;99726.31;5015843;28;20033;-69
2023/06/12 06:27:38;;;;;;;9.90;5.37;;;;;;;19.77;75.79;99727.81;5033724;28;20029;-69
2023/06/12 06:30:05;;;;;;;14.57;5.85;;;;;;;19.86;75.53;99725.63;5017195;28;20486;-69
2023/06/12 06:32:30;;;;;;;9.50;5.82;;;;;;;19.90;75.59;99729.88;5039662;28;20029;-69
2023/06/12 06:34:55;;;;;;;10.70;5.80;;;;;;;19.94;75.57;99729.66;5035998;28;20029;-69
2023/06/12 06:37:21;;;;;;;11.63;5.70;;;;;;;19.98;75.48;99734.84;5030644;28;20042;-69
2023/06/12 06:39:46;;;;;;;11.10;5.23;;;;;;;20.00;75.58;99730.28;5036122;28;20024;-69
2023/06/12 06:42:12;;;;;;;11.00;5.83;;;;;;;20.01;75.52;99729.34;5039302;28;20427;-69
2023/06/12 06:44:38;;;;;;;12.57;5.88;;;;;;;20.03;75.26;99725.66;5037650;28;20036;-68
2023/06/12 06:47:03;;;;;;;10.00;5.53;;;;;;;20.01;75.37;99726.66;5035752;28;20041;-69
2023/06/12 06:49:30;;;;;;;15.60;6.10;;;;;;;20.00;75.63;99730.28;5038840;28;20112;-69
2023/06/12 06:51:57;;;;;;;9.85;5.30;;;;;;;19.98;75.55;99730.38;5014643;28;20068;-69
2023/06/12 06:54:22;;;;;;;13.37;5.53;;;;;;;19.97;75.74;99728.66;5038023;28;20037;-68
2023/06/12 06:56:48;;;;;;;15.13;6.32;;;;;;;19.97;75.80;99739.34;5034565;28;20037;-68
2023/06/12 06:59:14;;;;;;;14.00;5.97;;;;;;;19.98;75.65;99737.50;5037589;28;20504;-68
2023/06/12 07:01:40;;;;;;;13.80;5.40;;;;;;;19.98;75.84;99733.03;5033698;28;20052;-68
2023/06/12 07:04:05;;;;;;;13.13;5.77;;;;;;;20.01;75.72;99730.22;5038771;28;20037;-68
2023/06/12 07:06:31;;;;;;;13.75;6.45;;;;;;;20.00;75.63;99730.28;5037686;28;20100;-68
2023/06/12 07:08:56;;;;;;;11.27;5.97;;;;;;;20.00;75.54;99731.16;5038308;28;20032;-69
2023/06/12 07:11:22;;;;;;;11.30;6.13;;;;;;;20.00;75.74;99730.28;5037719;28;20051;-68
2023/06/12 07:13:47;;;;;;;13.00;6.80;;;;;;;20.00;75.98;99735.63;5038330;28;20064;-68
2023/06/12 07:16:13;;;;;;;14.67;6.90;;;;;;;19.99;76.45;99734.78;5034653;28;20033;-68
2023/06/12 07:18:39;;;;;;;11.18;6.45;;;;;;;20.00;76.22;99730.28;5038031;28;20021;-68
2023/06/12 07:21:04;;;;;;;12.20;6.80;;;;;;;20.01;76.00;99727.53;5020254;28;20686;-68
2023/06/12 07:23:30;;;;;;;11.47;6.00;;;;;;;20.04;76.25;99716.69;5038060;28;20060;-68
2023/06/12 07:25:55;;;;;;;9.90;5.67;;;;;;;20.10;76.10;99711.94;5035839;28;20549;-69
2023/06/12 07:28:20;;;;;;;15.18;7.10;;;;;;;20.11;75.88;99711.88;5037705;28;20754;-68
2023/06/12 07:30:46;;;;;;;12.90;6.37;;;;;;;20.15;76.03;99712.59;5036890;28;20033;-68
2023/06/12 07:33:14;;;;;;;11.27;6.20;;;;;;;20.21;75.39;99713.13;5037046;28;20033;-68
2023/06/12 07:35:40;;;;;;;11.20;5.63;;;;;;;20.28;75.59;99708.31;5038199;28;20025;-69
2023/06/12 07:38:05;;;;;;;12.60;7.03;;;;;;;20.31;75.53;99713.50;5037821;28;20033;-68
2023/06/12 07:40:31;;;;;;;15.90;6.90;;;;;;;20.28;75.66;99713.66;5037590;28;20539;-68
2023/06/12 07:42:56;;;;;;;11.15;6.22;;;;;;;20.27;75.33;99714.59;5038117;28;20075;-68
2023/06/12 07:45:22;;;;;;;10.80;6.17;;;;;;;20.27;75.52;99711.94;5037048;28;20029;-68
2023/06/12 07:47:49;;;;;;;11.73;6.30;;;;;;;20.32;75.63;99709.88;5037352;28;20064;-68
2023/06/12 07:50:15;;;;;;;14.15;6.57;;;;;;;20.39;75.47;99709.56;5037891;28;20099;-69
2023/06/12 07:52:40;;;;;;;11.18;5.97;;;;;;;20.47;75.67;99701.97;5020082;28;20041;-68
2023/06/12 07:55:07;;;;;;;10.27;5.43;;;;;;;20.56;74.80;99698.78;5037802;28;20075;-69
2023/06/12 07:57:32;;;;;;;11.30;5.80;;;;;;;20.64;74.75;99701.03;5036869;28;20034;-69
2023/06/12 07:59:57;;;;;;;14.13;5.90;;;;;;;20.70;74.72;99703.38;5037865;28;20031;-69
2023/06/12 08:02:28;;;;;;;8.90;6.00;;;;;;;20.76;74.17;99702.16;5037796;28;20021;-69
2023/06/12 08:04:55;;;;;;;10.00;4.93;;;;;;;20.81;73.98;99705.47;5037558;28;20500;-69
2023/06/12 08:07:21;;;;;;;11.95;6.15;;;;;;;20.88;74.02;99706.88;5019295;28;20036;-69
2023/06/12 08:09:47;;;;;;;12.07;5.20;;;;;;;20.96;73.67;99703.75;5037711;28;20033;-69
2023/06/12 08:12:12;;;;;;;11.97;5.20;;;;;;;21.01;73.64;99701.69;5019592;28;20040;-69
2023/06/12 08:14:39;;;;;;;8.70;4.77;;;;;;;21.08;73.21;99703.06;5037494;28;20041;-69
2023/06/12 08:17:05;;;;;;;9.70;5.32;;;;;;;21.19;73.29;99705.13;5037060;28;20033;-69
2023/06/12 08:19:32;;;;;;;8.50;4.50;;;;;;;21.28;73.21;99708.22;5019447;28;20032;-69
2023/06/12 08:21:58;;;;;;;10.90;5.30;;;;;;;21.39;72.71;99708.47;5037326;28;20039;-70
2023/06/12 08:24:29;;;;;;;11.00;5.60;;;;;;;21.42;72.11;99710.09;5019598;28;20040;-69
2023/06/12 08:26:55;;;;;;;9.53;4.97;;;;;;;21.47;72.23;99708.88;5036722;28;20104;-69
2023/06/12 08:29:20;;;;;;;13.70;5.10;;;;;;;21.53;72.33;99710.34;5015593;28;20556;-69
2023/06/12 08:31:46;;;;;;;9.53;4.90;;;;;;;21.61;72.53;99709.91;5034865;28;20030;-69
2023/06/12 08:34:11;;;;;;;11.23;5.00;;;;;;;21.63;72.40;99702.63;5019153;28;20033;-69
2023/06/12 08:36:37;;;;;;;10.17;4.60;;;;;;;21.66;72.10;99707.84;5036910;28;20033;-70
2023/06/12 08:39:02;;;;;;;9.03;4.50;;;;;;;21.72;71.93;99698.56;5018765;28;20057;-69
2023/06/12 08:41:33;;;;;;;9.73;4.57;;;;;;;21.81;71.57;99708.72;5012988;28;20045;-69
2023/06/12 08:44:00;;;;;;;9.63;4.80;;;;;;;21.85;71.01;99717.47;5027345;28;20033;-69
2023/06/12 08:46:29;;;;;;;10.02;4.10;;;;;;;21.80;70.63;99710.53;5030970;28;20382;-69
2023/06/12 08:48:59;;;;;;;9.93;4.18;;;;;;;21.85;70.74;99712.94;5036366;28;20136;-69
2023/06/12 08:51:25;;;;;;;8.60;4.20;;;;;;;21.89;70.71;99713.63;5019007;28;20037;-69
2023/06/12 08:53:50;;;;;;;9.27;4.60;;;;;;;21.95;70.51;99713.25;5036992;28;20079;-69
2023/06/12 08:56:16;;;;;;;10.70;4.55;;;;;;;21.97;70.36;99713.19;5036258;28;20543;-69
2023/06/12 08:58:42;;;;;;;9.38;4.38;;;;;;;22.00;70.40;99713.00;5036637;28;20037;-69
2023/06/12 09:01:12;;;;;;;11.27;4.43;;;;;;;22.03;70.33;99718.16;5036265;28;20022;-69
2023/06/12 09:03:43;;;;;;;10.05;5.00;;;;;;;22.07;70.00;99712.53;5036748;28;20025;-69
2023/06/12 09:06:11;;;;;;;9.75;4.68;;;;;;;22.14;69.94;99717.50;5023325;28;20033;-69
2023/06/12 09:08:38;;;;;;;9.70;3.83;;;;;;;22.22;69.74;99712.53;5018790;28;20021;-69
2023/06/12 09:11:04;;;;;;;9.32;4.32;;;;;;;22.29;69.93;99715.69;5036325;28;20033;-69
2023/06/12 09:13:43;;;;;;;8.38;4.05;;;;;;;22.33;69.72;99712.75;5018808;28;20042;-69
2023/06/12 09:16:13;;;;;;;8.98;4.63;;;;;;;22.42;69.11;99710.44;5035747;28;20029;-69
2023/06/12 09:18:52;;;;;;;8.97;4.90;;;;;;;22.44;69.29;99703.13;5036331;28;20033;-69
2023/06/12 09:21:17;;;;;;;12.65;4.93;;;;;;;22.54;68.98;99704.31;5036805;28;20070;-69
2023/06/12 09:23:50;;;;;;;12.70;4.40;;;;;;;22.59;69.05;99695.97;5018344;28;20048;-70
2023/06/12 09:26:16;;;;;;;7.10;4.17;;;;;;;22.63;69.12;99698.38;5036088;28;20271;-70
2023/06/12 09:28:42;;;;;;;7.88;3.85;;;;;;;22.68;68.82;99705.25;5018292;28;20029;-70
2023/06/12 09:31:08;;;;;;;11.10;3.60;;;;;;;22.70;68.41;99692.59;5035872;28;20060;-70
2023/06/12 09:33:39;;;;;;;8.80;3.75;;;;;;;22.73;68.24;99693.28;5036086;28;20065;-70
2023/06/12 09:36:05;;;;;;;9.40;3.70;;;;;;;22.75;68.16;99695.84;5036417;28;20067;-70
2023/06/12 09:38:32;;;;;;;10.10;3.93;;;;;;;22.80;68.12;99696.44;5036464;28;20028;-70
2023/06/12 09:40:58;;;;;;;7.93;3.60;;;;;;;22.86;67.97;99687.09;5035952;28;20029;-70
2023/06/12 09:43:26;;;;;;;8.48;4.15;;;;;;;22.93;67.45;99678.56;5036376;28;20132;-70
2023/06/12 09:45:52;;;;;;;8.07;3.35;;;;;;;22.98;67.39;99680.94;5036183;28;20033;-70
2023/06/12 09:48:17;;;;;;;6.80;3.40;;;;;;;23.02;66.90;99679.78;5035890;28;20494;-70
2023/06/12 09:50:43;;;;;;;7.37;3.67;;;;;;;23.06;66.74;99683.13;5035623;28;20056;-70
2023/06/12 09:53:11;;;;;;;8.40;3.70;;;;;;;23.14;66.82;99677.22;5018290;28;20030;-70
2023/06/12 09:55:39;;;;;;;12.53;3.30;;;;;;;23.23;66.21;99677.50;5036054;28;20037;-70
2023/06/12 09:58:07;;;;;;;8.10;3.40;;;;;;;23.29;66.35;99675.41;5035986;28;20029;-70
2023/06/12 10:00:34;;;;;;;9.00;3.65;;;;;;;23.33;65.76;99676.94;5032058;28;20040;-70
2023/06/12 10:03:04;;;;;;;5.82;3.10;;;;;;;23.35;66.05;99680.38;5027965;28;20017;-70
2023/06/12 10:05:42;;;;;;;6.93;3.35;;;;;;;23.35;66.00;99678.53;5008915;28;20478;-70
2023/06/12 10:08:08;;;;;;;8.40;3.57;;;;;;;23.39;65.74;99679.19;5035856;28;20524;-70
2023/06/12 10:10:35;;;;;;;8.13;3.67;;;;;;;23.43;65.64;99674.47;5035670;28;20448;-70
2023/06/12 10:13:04;;;;;;;8.07;3.63;;;;;;;23.43;66.04;99664.56;5036100;28;20414;-70
2023/06/12 10:15:30;;;;;;;8.35;3.40;;;;;;;23.45;65.39;99669.88;5032854;28;20038;-70
2023/06/12 10:17:57;;;;;;;8.95;3.50;;;;;;;23.47;65.49;99667.94;5025762;28;20502;-70
2023/06/12 10:20:23;;;;;;;11.03;4.10;;;;;;;23.52;65.65;99663.09;5017738;28;20040;-70
2023/06/12 10:22:51;;;;;;;8.73;3.40;;;;;;;23.59;65.31;99658.16;5036090;28;20040;-70
2023/06/12 10:25:17;;;;;;;9.13;3.85;;;;;;;23.61;65.40;99662.47;5017969;28;20033;-70
2023/06/12 10:27:43;;;;;;;9.80;3.55;;;;;;;23.67;65.27;99663.88;5036595;28;20474;-70
2023/06/12 10:30:12;;;;;;;9.67;3.87;;;;;;;23.70;65.20;99660.97;5038694;28;20030;-70
2023/06/12 10:32:41;;;;;;;8.38;4.05;;;;;;;23.75;64.64;99656.16;5039084;28;20122;-70
2023/06/12 10:35:07;;;;;;;8.10;3.90;;;;;;;23.64;64.96;99658.72;5036663;28;20520;-70
2023/06/12 10:37:42;;;;;;;7.70;3.50;;;;;;;23.64;65.06;99650.66;5037810;28;20108;-70
2023/06/12 10:40:34;;;;;;;8.55;3.60;;;;;;;23.66;65.12;99648.72;5034896;28;20036;-70
2023/06/12 10:43:04;;;;;;;10.93;3.70;;;;;;;23.78;65.12;99642.50;5027511;28;20571;-70
2023/06/12 10:45:31;;;;;;;9.05;3.33;;;;;;;23.89;64.65;99643.56;5033078;28;20025;-70
2023/06/12 10:48:02;;;;;;;7.95;3.60;;;;;;;23.93;64.24;99637.00;5035695;28;20057;-70
2023/06/12 10:50:49;;;;;;;8.18;3.67;;;;;;;23.95;64.28;99643.13;5021192;28;20229;-70
2023/06/12 10:53:27;;;;;;;8.48;4.20;;;;;;;24.04;64.34;99639.84;5026312;28;20025;-70
2023/06/12 10:56:06;;;;;;;8.63;4.23;;;;;;;24.14;64.36;99633.81;5038913;28;20144;-70
2023/06/12 10:58:39;;;;;;;9.73;3.90;;;;;;;24.26;63.93;99640.13;5039027;28;20025;-70
2023/06/12 11:01:10;;;;;;;9.23;4.20;;;;;;;24.39;63.78;99634.72;5020732;28;20026;-70
2023/06/12 11:03:38;;;;;;;13.88;3.97;;;;;;;24.58;62.77;99629.72;5038820;28;20100;-70
2023/06/12 11:06:13;;;;;;;6.03;3.22;;;;;;;24.72;63.25;99626.03;5032303;28;20029;-71
2023/06/12 11:08:42;;;;;;;8.20;3.80;;;;;;;24.82;62.17;99620.84;5032900;28;20075;-70
2023/06/12 11:11:08;;;;;;;7.20;3.30;;;;;;;24.83;61.84;99614.50;5038279;28;20025;-70
2023/06/12 11:13:36;;;;;;;10.10;3.65;;;;;;;24.92;62.22;99611.09;5038520;28;20517;-70
2023/06/12 11:16:02;;;;;;;8.65;4.15;;;;;;;25.03;61.74;99610.28;5038132;28;20418;-70
2023/06/12 11:18:27;;;;;;;9.43;3.83;;;;;;;25.05;61.95;99611.03;5038588;28;20025;-70
2023/06/12 11:20:54;;;;;;;8.43;3.88;;;;;;;25.05;62.05;99615.56;5019175;28;20129;-70
2023/06/12 11:23:25;;;;;;;8.83;3.80;;;;;;;25.02;61.83;99613.13;5035666;28;20383;-70
2023/06/12 11:25:53;;;;;;;8.50;4.15;;;;;;;25.01;61.13;99612.25;5035504;28;20621;-70
2023/06/12 11:28:23;;;;;;;8.48;3.97;;;;;;;25.07;61.45;99613.63;5037806;28;20401;-70
2023/06/12 11:30:50;;;;;;;8.80;3.78;;;;;;;25.14;61.85;99614.88;5016732;28;20658;-70